Wetterdaten: Woche 26.11.18 - 02.12.18 (KW48)
Datum Zeit Temp. Aussen Temp. o. S. +5cm Feuchte Auss Luftdruck Regen Sonnenschein Regendauer Solar Windben Empfang
26.11.2018 00:00 4,3 C 3,9 C 3,3 C 99 % 1007,7 hPa 0,0 l/m 0,00 h 0,20 h 0 W/m 7,1 km/h (2 Bft) 98,36 %
26.11.2018 01:00 4,5 C 3,9 C 3,7 C 99 % 1007,4 hPa 0,0 l/m 0,00 h 0,10 h 0 W/m 8,4 km/h (2 Bft) 96,37 %
26.11.2018 02:00 4,5 C 3,9 C 3,9 C 99 % 1007,2 hPa 0,0 l/m 0,00 h 0,00 h 0 W/m 7,0 km/h (2 Bft) 97,58 %
26.11.2018 03:00 4,3 C 3,8 C 3,3 C 99 % 1007,2 hPa 0,0 l/m 0,00 h 0,00 h 0 W/m 3,7 km/h (1 Bft) 98,08 %
26.11.2018 04:00 4,3 C 3,9 C 3,3 C 99 % 1007,2 hPa 0,0 l/m 0,00 h 0,10 h 0 W/m 4,7 km/h (1 Bft) 97,44 %
26.11.2018 05:00 4,3 C 3,9 C 3,3 C 99 % 1007,2 hPa 0,0 l/m 0,00 h 0,07 h 0 W/m 5,9 km/h (2 Bft) 97,65 %
26.11.2018 06:00 4,4 C 3,9 C 3,3 C 99 % 1007,1 hPa 0,0 l/m 0,00 h 0,17 h 0 W/m 4,4 km/h (1 Bft) 96,36 %
26.11.2018 07:00 4,3 C 3,8 C 3,3 C 99 % 1007,5 hPa 0,0 l/m 0,00 h 0,00 h 0 W/m 5,4 km/h (1 Bft) 98,08 %
26.11.2018 08:00 4,2 C 4,0 C 3,3 C 98 % 1008,0 hPa 0,0 l/m 0,00 h 0,00 h 11 W/m 9,5 km/h (2 Bft) 97,58 %
26.11.2018 09:00 4,5 C 4,6 C 3,9 C 98 % 1008,6 hPa 0,0 l/m 0,00 h 0,07 h 36 W/m 10,0 km/h (2 Bft) 95,16 %
26.11.2018 10:00 5,0 C 5,0 C 4,4 C 98 % 1009,1 hPa 0,0 l/m 0,00 h 0,43 h 53 W/m 9,7 km/h (2 Bft) 99,80 %
26.11.2018 11:00 5,4 C 5,5 C 5,0 C 98 % 1009,3 hPa 0,2 l/m 0,00 h 0,47 h 89 W/m 9,6 km/h (2 Bft) 96,66 %
26.11.2018 12:00 6,0 C 6,1 C 5,7 C 98 % 1009,4 hPa 0,0 l/m 0,00 h 0,00 h 85 W/m 10,4 km/h (2 Bft) 96,56 %
26.11.2018 13:00 6,1 C 6,2 C 5,6 C 96 % 1009,3 hPa 0,0 l/m 0,00 h 0,00 h 70 W/m 9,1 km/h (2 Bft) 99,22 %
26.11.2018 14:00 6,3 C 6,3 C 5,6 C 94 % 1009,4 hPa 0,0 l/m 0,00 h 0,00 h 50 W/m 7,9 km/h (2 Bft) 96,65 %
26.11.2018 15:00 6,2 C 5,8 C 5,1 C 93 % 1009,7 hPa 0,0 l/m 0,00 h 0,00 h 28 W/m 6,6 km/h (2 Bft) 97,22 %
26.11.2018 16:00 5,8 C 5,1 C 4,4 C 93 % 1010,1 hPa 0,0 l/m 0,00 h 0,00 h 8 W/m 6,0 km/h (2 Bft) 97,58 %
26.11.2018 17:00 5,3 C 4,4 C 4,0 C 93 % 1010,5 hPa 0,0 l/m 0,00 h 0,00 h 0 W/m 7,5 km/h (2 Bft) 97,93 %
26.11.2018 18:00 4,7 C 4,0 C 3,7 C 93 % 1011,0 hPa 0,0 l/m 0,00 h 0,00 h 0 W/m 8,1 km/h (2 Bft) 96,17 %
26.11.2018 19:00 4,2 C 3,5 C 3,3 C 93 % 1011,7 hPa 0,0 l/m 0,00 h 0,00 h 0 W/m 8,0 km/h (2 Bft) 98,22 %
26.11.2018 20:00 3,7 C 3,2 C 2,8 C 93 % 1012,4 hPa 0,0 l/m 0,00 h 0,00 h 0 W/m 9,1 km/h (2 Bft) 99,07 %
26.11.2018 21:00 3,4 C 2,8 C 2,6 C 93 % 1012,8 hPa 0,0 l/m 0,00 h 0,00 h 0 W/m 8,2 km/h (2 Bft) 95,16 %
26.11.2018 22:00 3,0 C 2,2 C 1,9 C 93 % 1013,3 hPa 0,0 l/m 0,00 h 0,00 h 0 W/m 6,4 km/h (2 Bft) 98,79 %
26.11.2018 23:00 2,5 C 1,7 C 1,7 C 93 % 1013,7 hPa 0,0 l/m 0,00 h 0,00 h 0 W/m 3,1 km/h (1 Bft) 97,72 %
27.11.2018 00:00 2,3 C 2,0 C 1,9 C 94 % 1014,1 hPa 0,0 l/m 0,00 h 0,00 h 0 W/m 0,0 km/h (0 Bft) 96,54 %
27.11.2018 01:00 2,6 C 2,2 C 2,2 C 94 % 1014,3 hPa 0,0 l/m 0,00 h 0,00 h 0 W/m 1,1 km/h (0 Bft) 97,79 %
27.11.2018 02:00 2,6 C 2,2 C 2,2 C 94 % 1014,6 hPa 0,0 l/m 0,00 h 0,00 h 0 W/m 0,0 km/h (0 Bft) 97,71 %
27.11.2018 03:00 2,6 C 2,2 C 2,1 C 94 % 1014,5 hPa 0,0 l/m 0,00 h 0,00 h 0 W/m 0,0 km/h (0 Bft) 98,03 %
27.11.2018 04:00 2,6 C 2,2 C 2,2 C 95 % 1014,8 hPa 0,0 l/m 0,00 h 0,00 h 0 W/m 0,0 km/h (0 Bft) 96,53 %
27.11.2018 05:00 2,7 C 2,2 C 2,2 C 95 % 1015,1 hPa 0,0 l/m 0,00 h 0,00 h 0 W/m 0,0 km/h (0 Bft) 97,75 %
27.11.2018 06:00 2,5 C 1,8 C 1,8 C 95 % 1015,4 hPa 0,0 l/m 0,00 h 0,00 h 0 W/m 0,0 km/h (0 Bft) 99,12 %
27.11.2018 07:00 2,2 C 1,6 C 1,6 C 95 % 1015,9 hPa 0,0 l/m 0,00 h 0,00 h 0 W/m 0,0 km/h (0 Bft) 95,46 %
27.11.2018 08:00 2,3 C 2,3 C 2,2 C 95 % 1016,8 hPa 0,0 l/m 0,00 h 0,00 h 11 W/m 0,0 km/h (0 Bft) 98,15 %
27.11.2018 09:00 2,8 C 3,8 C 3,0 C 96 % 1017,2 hPa 0,0 l/m 0,40 h 0,00 h 65 W/m 0,0 km/h (0 Bft) 97,86 %
27.11.2018 10:00 3,8 C 6,2 C 3,5 C 96 % 1017,5 hPa 0,0 l/m 0,60 h 0,00 h 121 W/m 0,0 km/h (0 Bft) 96,23 %
27.11.2018 11:00 5,1 C 7,9 C 4,5 C 89 % 1017,5 hPa 0,0 l/m 0,97 h 0,00 h 222 W/m 12,3 km/h (3 Bft) 99,65 %
27.11.2018 12:00 5,8 C 6,4 C 5,2 C 82 % 1017,7 hPa 0,0 l/m 0,47 h 0,00 h 158 W/m 12,2 km/h (2 Bft) 96,50 %
27.11.2018 13:00 6,3 C 7,3 C 5,6 C 79 % 1018,0 hPa 0,0 l/m 0,93 h 0,00 h 169 W/m 13,0 km/h (3 Bft) 97,65 %
27.11.2018 14:00 6,4 C 7,0 C 5,4 C 77 % 1018,0 hPa 0,0 l/m 0,93 h 0,00 h 146 W/m 13,4 km/h (3 Bft) 97,50 %
27.11.2018 15:00 6,0 C 5,6 C 4,9 C 78 % 1018,4 hPa 0,0 l/m 0,10 h 0,00 h 36 W/m 10,4 km/h (2 Bft) 97,01 %
27.11.2018 16:00 5,5 C 4,5 C 3,9 C 80 % 1018,4 hPa 0,0 l/m 0,00 h 0,00 h 8 W/m 6,6 km/h (2 Bft) 98,08 %
27.11.2018 17:00 4,2 C 3,2 C 2,5 C 82 % 1018,5 hPa 0,0 l/m 0,00 h 0,00 h 0 W/m 8,3 km/h (2 Bft) 96,58 %
27.11.2018 18:00 3,1 C 2,1 C 1,6 C 85 % 1018,6 hPa 0,0 l/m 0,00 h 0,00 h 0 W/m 4,6 km/h (1 Bft) 98,49 %
27.11.2018 19:00 2,2 C 1,1 C 0,7 C 87 % 1018,6 hPa 0,0 l/m 0,00 h 0,00 h 0 W/m 5,0 km/h (1 Bft) 95,37 %
27.11.2018 20:00 2,3 C 2,2 C 1,1 C 88 % 1018,7 hPa 0,0 l/m 0,00 h 0,00 h 0 W/m 10,5 km/h (2 Bft) 97,79 %
27.11.2018 21:00 2,4 C 2,0 C 1,1 C 88 % 1018,6 hPa 0,0 l/m 0,00 h 0,00 h 0 W/m 15,4 km/h (3 Bft) 97,58 %
27.11.2018 22:00 2,4 C 1,9 C 1,2 C 87 % 1018,7 hPa 0,0 l/m 0,00 h 0,00 h 0 W/m 18,6 km/h (3 Bft) 97,08 %
27.11.2018 23:00 2,1 C 1,6 C 0,9 C 86 % 1018,7 hPa 0,0 l/m 0,00 h 0,00 h 0 W/m 17,4 km/h (3 Bft) 96,23 %
28.11.2018 00:00 1,8 C 1,1 C 0,6 C 87 % 1018,6 hPa 0,0 l/m 0,00 h 0,00 h 0 W/m 19,4 km/h (3 Bft) 97,81 %
28.11.2018 01:00 1,7 C 1,1 C 0,6 C 87 % 1018,0 hPa 0,0 l/m 0,00 h 0,00 h 0 W/m 20,7 km/h (4 Bft) 99,15 %
28.11.2018 02:00 1,9 C 1,6 C 0,8 C 88 % 1017,8 hPa 0,0 l/m 0,00 h 0,00 h 0 W/m 19,4 km/h (3 Bft) 95,51 %
28.11.2018 03:00 2,1 C 1,7 C 1,1 C 88 % 1017,7 hPa 0,2 l/m 0,00 h 0,00 h 0 W/m 21,4 km/h (4 Bft) 97,65 %
28.11.2018 04:00 2,4 C 2,2 C 1,5 C 89 % 1017,5 hPa 0,0 l/m 0,00 h 0,00 h 0 W/m 21,2 km/h (4 Bft) 97,81 %
28.11.2018 05:00 2,7 C 2,4 C 1,7 C 89 % 1017,2 hPa 0,0 l/m 0,00 h 0,00 h 0 W/m 22,5 km/h (4 Bft) 97,29 %
28.11.2018 06:00 3,2 C 2,8 C 2,1 C 89 % 1017,2 hPa 0,0 l/m 0,00 h 0,00 h 0 W/m 22,6 km/h (4 Bft) 97,06 %
28.11.2018 07:00 3,4 C 3,0 C 2,2 C 89 % 1017,2 hPa 0,0 l/m 0,00 h 0,00 h 0 W/m 23,6 km/h (4 Bft) 97,79 %
28.11.2018 08:00 3,7 C 3,3 C 2,7 C 89 % 1017,6 hPa 0,0 l/m 0,00 h 0,00 h 10 W/m 28,7 km/h (4 Bft) 97,87 %
28.11.2018 09:00 4,1 C 3,9 C 3,2 C 88 % 1017,8 hPa 0,0 l/m 0,00 h 0,00 h 35 W/m 28,4 km/h (4 Bft) 96,11 %
28.11.2018 10:00 4,5 C 4,4 C 3,8 C 87 % 1017,7 hPa 0,0 l/m 0,00 h 0,00 h 67 W/m 30,3 km/h (5 Bft) 98,09 %
28.11.2018 11:00 5,0 C 5,1 C 4,3 C 86 % 1017,5 hPa 0,0 l/m 0,00 h 0,00 h 88 W/m 31,0 km/h (5 Bft) 98,35 %
28.11.2018 12:00 5,7 C 6,1 C 5,2 C 85 % 1017,0 hPa 0,0 l/m 0,33 h 0,00 h 140 W/m 31,2 km/h (5 Bft) 95,47 %
28.11.2018 13:00 6,5 C 6,6 C 5,7 C 83 % 1016,6 hPa 0,0 l/m 0,33 h 0,03 h 132 W/m 32,4 km/h (5 Bft) 99,15 %
28.11.2018 14:00 6,5 C 6,2 C 5,6 C 83 % 1016,1 hPa 0,0 l/m 0,00 h 0,00 h 87 W/m 35,3 km/h (5 Bft) 97,61 %
28.11.2018 15:00 6,6 C 6,1 C 5,6 C 83 % 1015,7 hPa 0,0 l/m 0,00 h 0,00 h 31 W/m 32,8 km/h (5 Bft) 96,32 %
28.11.2018 16:00 6,2 C 4,7 C 4,2 C 87 % 1015,6 hPa 0,4 l/m 0,00 h 0,93 h 4 W/m 31,3 km/h (5 Bft) 98,36 %
28.11.2018 17:00 5,8 C 4,4 C 3,9 C 92 % 1015,7 hPa 0,2 l/m 0,00 h 0,03 h 0 W/m 31,1 km/h (5 Bft) 96,18 %
28.11.2018 18:00 5,4 C 4,4 C 3,9 C 94 % 1015,8 hPa 0,4 l/m 0,00 h 0,47 h 0 W/m 33,2 km/h (5 Bft) 98,97 %
28.11.2018 19:00 5,4 C 4,5 C 3,9 C 96 % 1015,7 hPa 0,0 l/m 0,00 h 0,10 h 0 W/m 31,0 km/h (5 Bft) 97,08 %
28.11.2018 20:00 5,5 C 5,0 C 4,4 C 96 % 1015,5 hPa 0,0 l/m 0,00 h 0,00 h 0 W/m 29,3 km/h (5 Bft) 96,08 %
28.11.2018 21:00 5,8 C 5,0 C 4,4 C 96 % 1015,2 hPa 0,0 l/m 0,00 h 0,00 h 0 W/m 28,5 km/h (4 Bft) 98,43 %
28.11.2018 22:00 6,0 C 5,4 C 4,9 C 95 % 1015,2 hPa 0,0 l/m 0,00 h 0,00 h 0 W/m 26,2 km/h (4 Bft) 95,59 %
28.11.2018 23:00 6,3 C 6,1 C 5,3 C 94 % 1015,0 hPa 0,0 l/m 0,00 h 0,00 h 0 W/m 28,2 km/h (4 Bft) 95,16 %
29.11.2018 00:00 6,7 C 6,4 C 5,7 C 93 % 1014,6 hPa 0,0 l/m 0,00 h 0,00 h 0 W/m 32,3 km/h (5 Bft) 98,34 %
29.11.2018 01:00 7,1 C 6,7 C 6,1 C 93 % 1014,3 hPa 0,0 l/m 0,00 h 0,00 h 0 W/m 30,0 km/h (5 Bft) 96,72 %
29.11.2018 02:00 7,4 C 7,0 C 6,2 C 93 % 1014,3 hPa 0,0 l/m 0,00 h 0,03 h 0 W/m 28,0 km/h (4 Bft) 96,72 %
29.11.2018 03:00 7,5 C 7,0 C 6,4 C 92 % 1014,1 hPa 0,0 l/m 0,00 h 0,00 h 0 W/m 28,7 km/h (4 Bft) 96,79 %
29.11.2018 04:00 7,4 C 7,0 C 6,1 C 92 % 1013,8 hPa 0,0 l/m 0,00 h 0,00 h 0 W/m 28,0 km/h (4 Bft) 94,44 %
29.11.2018 05:00 7,4 C 6,9 C 6,1 C 92 % 1013,5 hPa 0,0 l/m 0,00 h 0,20 h 0 W/m 30,5 km/h (5 Bft) 92,68 %
29.11.2018 06:00 7,3 C 6,5 C 5,9 C 93 % 1012,9 hPa 0,2 l/m 0,00 h 0,37 h 0 W/m 28,7 km/h (4 Bft) 91,29 %
29.11.2018 07:00 7,1 C 6,7 C 6,1 C 94 % 1012,8 hPa 0,0 l/m 0,00 h 0,10 h 0 W/m 32,5 km/h (5 Bft) 98,95 %
29.11.2018 08:00 7,1 C 6,7 C 5,9 C 93 % 1012,4 hPa 0,0 l/m 0,00 h 0,00 h 14 W/m 31,7 km/h (5 Bft) 94,90 %
29.11.2018 09:00 7,3 C 6,8 C 6,2 C 93 % 1012,1 hPa 0,0 l/m 0,00 h 0,23 h 36 W/m 35,1 km/h (5 Bft) 97,54 %
29.11.2018 10:00 7,4 C 7,1 C 6,7 C 92 % 1012,3 hPa 0,0 l/m 0,00 h 0,07 h 55 W/m 30,9 km/h (5 Bft) 99,24 %
29.11.2018 11:00 7,2 C 6,3 C 5,8 C 93 % 1011,6 hPa 0,4 l/m 0,00 h 0,97 h 40 W/m 31,5 km/h (5 Bft) 95,46 %
29.11.2018 12:00 6,9 C 5,7 C 5,4 C 94 % 1010,3 hPa 0,4 l/m 0,00 h 0,73 h 23 W/m 36,6 km/h (5 Bft) 97,65 %
29.11.2018 13:00 7,1 C 6,2 C 5,6 C 95 % 1009,5 hPa 0,0 l/m 0,00 h 0,33 h 38 W/m 33,7 km/h (5 Bft) 98,39 %
29.11.2018 14:00 7,2 C 6,1 C 5,6 C 94 % 1008,4 hPa 0,0 l/m 0,00 h 0,40 h 25 W/m 32,4 km/h (5 Bft) 97,07 %
29.11.2018 15:00 7,5 C 6,7 C 6,1 C 92 % 1007,9 hPa 0,0 l/m 0,00 h 0,00 h 32 W/m 31,2 km/h (5 Bft) 97,22 %
29.11.2018 16:00 7,6 C 7,2 C 6,1 C 90 % 1007,7 hPa 0,0 l/m 0,00 h 0,00 h 10 W/m 28,1 km/h (4 Bft) 97,92 %
29.11.2018 17:00 7,9 C 7,2 C 6,1 C 88 % 1007,5 hPa 0,0 l/m 0,00 h 0,00 h 0 W/m 29,1 km/h (5 Bft) 98,23 %
29.11.2018 18:00 7,8 C 7,2 C 6,3 C 87 % 1007,9 hPa 0,0 l/m 0,00 h 0,00 h 0 W/m 27,7 km/h (4 Bft) 95,79 %
29.11.2018 19:00 7,9 C 7,2 C 6,7 C 86 % 1008,4 hPa 0,0 l/m 0,00 h 0,00 h 0 W/m 27,9 km/h (4 Bft) 98,58 %
29.11.2018 20:00 7,8 C 7,1 C 6,5 C 86 % 1008,2 hPa 0,0 l/m 0,00 h 0,17 h 0 W/m 22,0 km/h (4 Bft) 99,37 %
29.11.2018 21:00 7,8 C 7,1 C 6,5 C 86 % 1008,2 hPa 0,0 l/m 0,00 h 0,00 h 0 W/m 21,1 km/h (4 Bft) 93,66 %
29.11.2018 22:00 7,7 C 7,2 C 6,6 C 87 % 1008,2 hPa 0,0 l/m 0,00 h 0,00 h 0 W/m 20,7 km/h (4 Bft) 99,50 %
29.11.2018 23:00 7,8 C 7,2 C 6,7 C 87 % 1008,2 hPa 0,0 l/m 0,00 h 0,00 h 0 W/m 17,1 km/h (3 Bft) 98,49 %
30.11.2018 00:00 8,0 C 7,6 C 6,7 C 88 % 1007,9 hPa 0,0 l/m 0,00 h 0,00 h 0 W/m 15,2 km/h (3 Bft) 94,88 %
30.11.2018 01:00 8,1 C 7,7 C 6,9 C 89 % 1007,6 hPa 0,0 l/m 0,00 h 0,00 h 0 W/m 16,1 km/h (3 Bft) 98,72 %
30.11.2018 02:00 8,4 C 7,8 C 7,2 C 89 % 1007,8 hPa 0,0 l/m 0,00 h 0,00 h 0 W/m 13,5 km/h (3 Bft) 97,80 %
30.11.2018 03:00 8,4 C 7,8 C 7,1 C 89 % 1007,9 hPa 0,0 l/m 0,00 h 0,00 h 0 W/m 13,4 km/h (3 Bft) 96,45 %
30.11.2018 04:00 8,3 C 7,8 C 6,8 C 90 % 1007,7 hPa 0,0 l/m 0,00 h 0,00 h 0 W/m 13,5 km/h (3 Bft) 97,82 %
30.11.2018 05:00 8,4 C 8,1 C 7,1 C 91 % 1007,6 hPa 0,0 l/m 0,00 h 0,00 h 0 W/m 11,3 km/h (2 Bft) 97,57 %
30.11.2018 06:00 8,8 C 8,3 C 7,5 C 91 % 1007,8 hPa 0,0 l/m 0,00 h 0,00 h 0 W/m 9,9 km/h (2 Bft) 97,28 %
30.11.2018 07:00 8,8 C 8,1 C 7,1 C 91 % 1008,1 hPa 0,0 l/m 0,00 h 0,00 h 0 W/m 7,3 km/h (2 Bft) 95,98 %
30.11.2018 08:00 8,1 C 6,8 C 6,1 C 91 % 1008,6 hPa 0,0 l/m 0,00 h 0,00 h 16 W/m 5,7 km/h (1 Bft) 98,59 %
30.11.2018 09:00 7,7 C 7,9 C 6,6 C 93 % 1008,9 hPa 0,0 l/m 0,07 h 0,00 h 56 W/m 10,5 km/h (2 Bft) 97,91 %
30.11.2018 10:00 9,1 C 11,2 C 8,5 C 93 % 1009,0 hPa 0,0 l/m 0,93 h 0,00 h 142 W/m 11,8 km/h (2 Bft) 95,98 %
30.11.2018 11:00 10,8 C 11,5 C 10,2 C 87 % 1008,9 hPa 0,0 l/m 0,20 h 0,00 h 119 W/m 16,8 km/h (3 Bft) 99,58 %
30.11.2018 12:00 11,6 C 11,5 C 10,6 C 83 % 1008,9 hPa 0,0 l/m 0,17 h 0,00 h 87 W/m 17,2 km/h (3 Bft) 98,27 %
30.11.2018 13:00 11,8 C 12,5 C 10,6 C 81 % 1008,7 hPa 0,0 l/m 0,53 h 0,00 h 137 W/m 16,9 km/h (3 Bft) 94,72 %
30.11.2018 14:00 11,7 C 11,6 C 10,6 C 80 % 1008,7 hPa 0,0 l/m 0,00 h 0,00 h 74 W/m 16,4 km/h (3 Bft) 99,50 %
30.11.2018 15:00 11,6 C 11,2 C 10,2 C 80 % 1008,8 hPa 0,0 l/m 0,40 h 0,00 h 51 W/m 14,2 km/h (3 Bft) 97,52 %
30.11.2018 16:00 11,1 C 10,0 C 9,3 C 82 % 1009,2 hPa 0,0 l/m 0,20 h 0,00 h 16 W/m 11,1 km/h (2 Bft) 95,70 %
30.11.2018 17:00 10,3 C 9,2 C 8,7 C 85 % 1009,5 hPa 0,0 l/m 0,00 h 0,00 h 0 W/m 9,2 km/h (2 Bft) 98,24 %
30.11.2018 18:00 9,4 C 8,3 C 7,9 C 87 % 1009,8 hPa 0,0 l/m 0,00 h 0,00 h 0 W/m 10,2 km/h (2 Bft) 97,18 %
30.11.2018 19:00 8,8 C 7,6 C 7,1 C 89 % 1010,3 hPa 0,0 l/m 0,00 h 0,00 h 0 W/m 8,8 km/h (2 Bft) 98,47 %
30.11.2018 20:00 8,0 C 7,2 C 6,7 C 91 % 1010,7 hPa 0,0 l/m 0,00 h 0,00 h 0 W/m 10,0 km/h (2 Bft) 96,95 %
30.11.2018 21:00 7,8 C 6,9 C 6,4 C 92 % 1011,2 hPa 0,0 l/m 0,00 h 0,00 h 0 W/m 8,8 km/h (2 Bft) 94,93 %
30.11.2018 22:00 7,1 C 6,0 C 5,5 C 92 % 1011,4 hPa 0,0 l/m 0,00 h 0,00 h 0 W/m 6,5 km/h (2 Bft) 99,29 %
30.11.2018 23:00 6,6 C 6,0 C 5,5 C 94 % 1011,6 hPa 0,0 l/m 0,00 h 0,00 h 0 W/m 6,6 km/h (2 Bft) 97,66 %
01.12.2018 00:00 6,5 C 6,0 C 5,4 C 94 % 1011,7 hPa 0,0 l/m 0,00 h 0,00 h 0 W/m 7,5 km/h (2 Bft) 94,88 %
01.12.2018 01:00 6,4 C 5,8 C 5,0 C 94 % 1011,7 hPa 0,0 l/m 0,00 h 0,00 h 0 W/m 5,4 km/h (1 Bft) 98,93 %
01.12.2018 02:00 5,7 C 4,5 C 4,1 C 93 % 1011,7 hPa 0,0 l/m 0,00 h 0,00 h 0 W/m 2,6 km/h (1 Bft) 96,65 %
01.12.2018 03:00 5,2 C 4,6 C 4,0 C 94 % 1011,6 hPa 0,0 l/m 0,00 h 0,00 h 0 W/m 4,7 km/h (1 Bft) 97,79 %
01.12.2018 04:00 5,2 C 4,9 C 4,0 C 95 % 1011,5 hPa 0,0 l/m 0,00 h 0,00 h 0 W/m 2,7 km/h (1 Bft) 97,29 %
01.12.2018 05:00 5,6 C 5,6 C 4,7 C 96 % 1011,8 hPa 0,2 l/m 0,00 h 0,07 h 0 W/m 10,0 km/h (2 Bft) 96,01 %
01.12.2018 06:00 5,9 C 5,2 C 4,6 C 95 % 1012,0 hPa 0,0 l/m 0,00 h 0,00 h 0 W/m 7,3 km/h (2 Bft) 99,16 %
01.12.2018 07:00 5,6 C 5,0 C 4,4 C 95 % 1011,8 hPa 0,0 l/m 0,00 h 0,00 h 0 W/m 8,3 km/h (2 Bft) 95,37 %
01.12.2018 08:00 5,4 C 5,0 C 4,3 C 95 % 1011,7 hPa 0,0 l/m 0,00 h 0,00 h 11 W/m 6,6 km/h (2 Bft) 97,37 %
01.12.2018 09:00 5,5 C 5,8 C 4,7 C 95 % 1011,8 hPa 0,0 l/m 0,13 h 0,00 h 60 W/m 7,8 km/h (2 Bft) 98,79 %
01.12.2018 10:00 6,4 C 8,7 C 5,8 C 95 % 1011,9 hPa 0,0 l/m 0,50 h 0,00 h 118 W/m 10,3 km/h (2 Bft) 95,02 %
01.12.2018 11:00 8,3 C 9,8 C 7,3 C 90 % 1011,5 hPa 0,0 l/m 0,27 h 0,00 h 127 W/m 13,4 km/h (3 Bft) 98,58 %
01.12.2018 12:00 9,3 C 10,2 C 8,7 C 86 % 1010,7 hPa 0,0 l/m 0,37 h 0,00 h 164 W/m 16,5 km/h (3 Bft) 98,93 %
01.12.2018 13:00 10,2 C 10,3 C 9,4 C 80 % 1009,9 hPa 0,0 l/m 0,10 h 0,00 h 126 W/m 19,3 km/h (3 Bft) 96,15 %
01.12.2018 14:00 10,3 C 10,0 C 9,3 C 78 % 1009,4 hPa 0,0 l/m 0,00 h 0,00 h 66 W/m 21,0 km/h (4 Bft) 97,65 %
01.12.2018 15:00 10,0 C 8,9 C 8,5 C 79 % 1009,1 hPa 0,2 l/m 0,00 h 0,43 h 15 W/m 21,7 km/h (4 Bft) 97,93 %
01.12.2018 16:00 9,0 C 6,9 C 6,9 C 87 % 1008,6 hPa 0,2 l/m 0,00 h 1,00 h 5 W/m 15,4 km/h (3 Bft) 97,15 %
01.12.2018 17:00 8,0 C 6,7 C 6,1 C 92 % 1007,5 hPa 0,2 l/m 0,00 h 0,50 h 0 W/m 18,3 km/h (3 Bft) 96,72 %
01.12.2018 18:00 7,7 C 6,7 C 6,2 C 94 % 1006,4 hPa 0,2 l/m 0,00 h 0,30 h 0 W/m 24,3 km/h (4 Bft) 97,97 %
01.12.2018 19:00 7,6 C 6,7 C 6,1 C 95 % 1005,6 hPa 0,2 l/m 0,00 h 0,27 h 0 W/m 25,4 km/h (4 Bft) 98,29 %
01.12.2018 20:00 7,7 C 6,7 C 6,4 C 95 % 1004,8 hPa 0,0 l/m 0,00 h 0,03 h 0 W/m 25,3 km/h (4 Bft) 95,65 %
01.12.2018 21:00 7,8 C 6,7 C 6,6 C 95 % 1004,1 hPa 0,0 l/m 0,00 h 0,07 h 0 W/m 20,3 km/h (4 Bft) 98,43 %
01.12.2018 22:00 8,3 C 7,3 C 7,2 C 94 % 1003,5 hPa 0,0 l/m 0,00 h 0,00 h 0 W/m 15,0 km/h (3 Bft) 98,01 %
01.12.2018 23:00 8,8 C 8,0 C 7,8 C 92 % 1003,1 hPa 0,0 l/m 0,00 h 0,00 h 0 W/m 12,0 km/h (2 Bft) 95,30 %
02.12.2018 00:00 9,3 C 8,7 C 8,0 C 90 % 1002,6 hPa 0,0 l/m 0,00 h 0,00 h 0 W/m 13,3 km/h (3 Bft) 99,14 %
02.12.2018 01:00 9,6 C 9,0 C 8,3 C 89 % 1001,9 hPa 0,0 l/m 0,00 h 0,03 h 0 W/m 14,3 km/h (3 Bft) 97,37 %
02.12.2018 02:00 9,6 C 9,0 C 8,3 C 89 % 1001,1 hPa 0,0 l/m 0,00 h 0,00 h 0 W/m 16,2 km/h (3 Bft) 96,51 %
02.12.2018 03:00 9,7 C 8,6 C 8,1 C 91 % 1000,3 hPa 0,6 l/m 0,00 h 0,37 h 0 W/m 16,3 km/h (3 Bft) 98,72 %
02.12.2018 04:00 9,1 C 7,8 C 7,4 C 95 % 999,6 hPa 3,4 l/m 0,00 h 1,00 h 0 W/m 15,7 km/h (3 Bft) 96,85 %
02.12.2018 05:00 8,8 C 7,8 C 7,2 C 97 % 998,6 hPa 2,6 l/m 0,00 h 1,00 h 0 W/m 18,7 km/h (3 Bft) 97,91 %
02.12.2018 06:00 8,6 C 7,8 C 7,2 C 97 % 997,8 hPa 1,0 l/m 0,00 h 1,00 h 0 W/m 18,8 km/h (3 Bft) 97,80 %
02.12.2018 07:00 8,7 C 7,8 C 7,5 C 98 % 997,2 hPa 1,8 l/m 0,00 h 0,87 h 0 W/m 17,6 km/h (3 Bft) 96,22 %
02.12.2018 08:00 9,1 C 8,4 C 7,9 C 99 % 996,9 hPa 1,6 l/m 0,00 h 0,67 h 8 W/m 11,9 km/h (2 Bft) 98,72 %
02.12.2018 09:00 9,8 C 9,3 C 8,7 C 99 % 996,8 hPa 0,2 l/m 0,00 h 0,47 h 12 W/m 11,7 km/h (2 Bft) 96,36 %
02.12.2018 10:00 11,0 C 10,4 C 9,8 C 99 % 997,0 hPa 1,4 l/m 0,00 h 0,43 h 18 W/m 17,3 km/h (3 Bft) 98,36 %
02.12.2018 11:00 11,9 C 11,4 C 10,6 C 100 % 997,1 hPa 0,0 l/m 0,00 h 0,43 h 47 W/m 20,6 km/h (4 Bft) 97,79 %
02.12.2018 12:00 12,6 C 12,0 C 11,3 C 99 % 997,1 hPa 0,2 l/m 0,00 h 0,73 h 58 W/m 18,0 km/h (3 Bft) 96,10 %
02.12.2018 13:00 13,2 C 12,7 C 11,9 C 99 % 997,4 hPa 0,0 l/m 0,00 h 0,33 h 73 W/m 17,6 km/h (3 Bft) 98,93 %
02.12.2018 14:00 13,4 C 12,8 C 12,0 C 99 % 997,7 hPa 0,0 l/m 0,00 h 0,07 h 31 W/m 15,5 km/h (3 Bft) 96,07 %
02.12.2018 15:00 13,3 C 12,4 C 11,7 C 97 % 998,2 hPa 0,0 l/m 0,00 h 0,07 h 14 W/m 15,0 km/h (3 Bft) 97,58 %
02.12.2018 16:00 13,2 C 12,1 C 11,5 C 97 % 998,7 hPa 0,2 l/m 0,00 h 0,57 h 4 W/m 12,5 km/h (3 Bft) 98,79 %
02.12.2018 17:00 12,9 C 11,8 C 11,2 C 97 % 998,8 hPa 0,0 l/m 0,00 h 0,10 h 0 W/m 13,6 km/h (3 Bft) 96,02 %
02.12.2018 18:00 12,9 C 12,2 C 11,6 C 98 % 998,9 hPa 0,0 l/m 0,00 h 0,00 h 0 W/m 13,1 km/h (3 Bft) 97,35 %
02.12.2018 19:00 12,9 C 12,2 C 11,7 C 97 % 999,3 hPa 0,0 l/m 0,00 h 0,00 h 0 W/m 13,0 km/h (3 Bft) 97,02 %
02.12.2018 20:00 12,9 C 12,1 C 11,6 C 95 % 999,4 hPa 0,0 l/m 0,00 h 0,00 h 0 W/m 11,9 km/h (2 Bft) 96,98 %
02.12.2018 21:00 12,8 C 11,7 C 11,2 C 95 % 999,3 hPa 0,2 l/m 0,00 h 0,40 h 0 W/m 9,9 km/h (2 Bft) 98,43 %
02.12.2018 22:00 12,7 C 11,7 C 11,1 C 97 % 998,9 hPa 0,0 l/m 0,00 h 0,07 h 0 W/m 10,7 km/h (2 Bft) 96,37 %
02.12.2018 23:00 12,8 C 11,7 C 11,1 C 97 % 998,7 hPa 0,2 l/m 0,00 h 0,83 h 0 W/m 12,1 km/h (2 Bft) 97,80 %
Min-Datum _ 28.11.18 27.11.18 27.11.18 27.11.18 02.12.18 - - - - 26.11.18 29.11.18
_ Min-Zeit 00:46 19:22 19:30 14:28 09:18 - - - - 00:10 06:30
Minimum _ 1,7 C 0,0 C 0,0 C 77 % 996,6 hPa - - - - 0,0 km/h (0 Bft) 74,47 %
Max-Datum _ 02.12.18 30.11.18 02.12.18 02.12.18 27.11.18 02.12.18 27.11.18 26.11.18 27.11.18 29.11.18 26.11.18
_ Max-Zeit 13:52 13:02 13:34 11:02 23:54 04:00 09:36 06:08 11:38 12:40 00:00
Maximum _ 13,4 C 13,3 C 12,2 C 100 % 1018,9 hPa 3,4 l/m 0,03 h 0,07 h 291 W/m 57,9 km/h
O-SO (7 Bft)
100,00 %
Durchschnitt _ 6,8 C 6,4 C 5,7 C 92 % 1010,1 hPa #17,0 l/m #8:56 h #18:54 h 62 W/m 15,7 km/h (3 Bft) 97,30 %
© 2018 W. Hausmann